Time;durP1;ratioP1;P1;durP2;ratioP2;P2;SDS_P1;SDS_P2;PMS_P1;PMS_P2;Temp;Humidity;BMP_temperature;BMP_pressure;BME280_temperature;BME280_humidity;BME280_pressure;Samples;Min_cycle;Max_cycle;Signal;HPM_P1;HPM_P2
2021/11/01 00:01:07;;;;;;;8.33;6.50;;;5.40;89.80;;;;;;5030720;28;20216;-75
2021/11/01 00:03:33;;;;;;;12.00;7.30;;;5.40;89.90;;;;;;5022646;28;20267;-74
2021/11/01 00:05:58;;;;;;;11.47;6.63;;;5.40;90.10;;;;;;5030594;28;20260;-75
2021/11/01 00:08:24;;;;;;;12.10;6.90;;;5.40;90.10;;;;;;5031773;28;20204;-75
2021/11/01 00:10:50;;;;;;;9.97;5.93;;;5.30;90.40;;;;;;5036071;28;20665;-74
2021/11/01 00:13:15;;;;;;;10.17;6.53;;;5.30;90.40;;;;;;5028979;28;20650;-74
2021/11/01 00:15:42;;;;;;;9.57;6.50;;;5.30;90.40;;;;;;5039042;28;20176;-74
2021/11/01 00:18:08;;;;;;;11.87;7.80;;;5.20;90.50;;;;;;5014077;28;20199;-74
2021/11/01 00:20:34;;;;;;;11.67;7.17;;;5.20;90.60;;;;;;5033302;28;20242;-74
2021/11/01 00:23:00;;;;;;;12.00;7.47;;;5.20;90.60;;;;;;5034920;28;20254;-74
2021/11/01 00:25:26;;;;;;;10.00;7.07;;;5.20;90.80;;;;;;5035792;28;20250;-74
2021/11/01 00:27:52;;;;;;;14.37;7.23;;;5.20;90.80;;;;;;5027289;28;20266;-74
2021/11/01 00:30:18;;;;;;;11.90;7.07;;;5.20;90.80;;;;;;5012484;28;20184;-75
2021/11/01 00:32:47;;;;;;;15.30;6.63;;;5.20;90.90;;;;;;5013270;28;20181;-75
2021/11/01 00:35:12;;;;;;;14.00;7.50;;;5.10;91.20;;;;;;5015484;28;20231;-75
2021/11/01 00:37:39;;;;;;;9.93;6.53;;;5.10;91.10;;;;;;5038993;28;20277;-75
2021/11/01 00:40:06;;;;;;;10.83;5.83;;;5.20;91.10;;;;;;5038060;28;20224;-75
2021/11/01 00:42:33;;;;;;;9.07;5.83;;;5.20;90.90;;;;;;5030816;28;20218;-74
2021/11/01 00:44:59;;;;;;;10.53;6.37;;;5.10;91.00;;;;;;5037239;28;20271;-74
2021/11/01 00:47:25;;;;;;;7.90;4.83;;;5.10;91.00;;;;;;5031153;28;20263;-74
2021/11/01 00:49:51;;;;;;;8.37;6.03;;;5.10;91.10;;;;;;5037214;28;20685;-74
2021/11/01 00:52:22;;;;;;;11.17;6.23;;;5.00;91.50;;;;;;5035058;28;20274;-75
2021/11/01 00:54:49;;;;;;;7.50;5.67;;;5.00;91.50;;;;;;5024337;28;20219;-74
2021/11/01 00:57:15;;;;;;;9.70;5.17;;;5.00;91.50;;;;;;5032972;28;20191;-74
2021/11/01 00:59:41;;;;;;;8.80;5.50;;;4.90;91.60;;;;;;5038764;28;20179;-73
2021/11/01 01:02:09;;;;;;;11.03;5.60;;;4.90;91.40;;;;;;5029692;28;20264;-74
2021/11/01 01:04:34;;;;;;;7.93;5.77;;;4.90;91.50;;;;;;5032106;28;20184;-74
2021/11/01 01:07:01;;;;;;;8.43;5.47;;;4.90;91.60;;;;;;5032982;28;20912;-74
2021/11/01 01:09:27;;;;;;;8.07;4.53;;;4.90;91.40;;;;;;5028902;28;20609;-74
2021/11/01 01:11:52;;;;;;;8.20;5.67;;;4.90;91.30;;;;;;5029350;28;20191;-74
2021/11/01 01:14:25;;;;;;;9.37;6.20;;;4.90;91.20;;;;;;5031620;28;20180;-74
2021/11/01 01:16:52;;;;;;;9.97;5.20;;;4.90;91.30;;;;;;5026942;28;20242;-73
2021/11/01 01:19:22;;;;;;;9.10;5.33;;;4.90;91.20;;;;;;5034564;28;20237;-74
2021/11/01 01:24:32;;;;;;;5.63;4.47;;;4.80;91.50;;;;;;5029842;28;20910;-74
2021/11/01 01:26:58;;;;;;;6.03;4.60;;;4.80;91.70;;;;;;5025893;28;20185;-74
2021/11/01 01:29:24;;;;;;;8.17;5.50;;;4.70;91.90;;;;;;5030593;28;20298;-73
2021/11/01 01:31:51;;;;;;;5.83;4.23;;;4.70;91.80;;;;;;5028529;28;20193;-73
2021/11/01 01:34:17;;;;;;;8.47;4.67;;;4.70;91.90;;;;;;5033416;28;20238;-73
2021/11/01 01:36:45;;;;;;;6.20;5.43;;;4.70;91.90;;;;;;5028662;28;20193;-73
2021/11/01 01:39:11;;;;;;;6.17;5.43;;;4.60;91.90;;;;;;5033667;28;20617;-75
2021/11/01 01:41:41;;;;;;;6.73;5.17;;;4.60;91.80;;;;;;5027320;28;20816;-73
2021/11/01 01:44:07;;;;;;;7.87;5.63;;;4.60;91.80;;;;;;5028437;28;20193;-75
2021/11/01 01:46:33;;;;;;;7.57;5.43;;;4.60;92.10;;;;;;5005790;28;20192;-75
2021/11/01 01:48:59;;;;;;;4.57;4.17;;;4.60;92.30;;;;;;5028220;28;20194;-75
2021/11/01 01:51:30;;;;;;;5.30;4.70;;;4.60;92.50;;;;;;5031455;28;20184;-75
2021/11/01 01:53:58;;;;;;;8.07;4.53;;;4.60;92.30;;;;;;5030223;28;20188;-75
2021/11/01 01:56:25;;;;;;;8.77;4.60;;;4.50;92.30;;;;;;5033665;28;20612;-75
2021/11/01 01:58:56;;;;;;;6.73;5.43;;;4.50;92.00;;;;;;5035567;28;20275;-75
2021/11/01 02:01:24;;;;;;;6.83;4.40;;;4.50;92.00;;;;;;5043305;28;20303;-75
2021/11/01 02:03:51;;;;;;;6.83;5.00;;;4.50;92.00;;;;;;5018214;28;20275;-76
2021/11/01 02:06:37;;;;;;;7.53;5.10;;;4.50;92.00;;;;;;5035160;28;20188;-76
2021/11/01 02:09:09;;;;;;;8.43;4.83;;;4.50;91.80;;;;;;5014891;28;20205;-75
2021/11/01 02:11:47;;;;;;;8.67;4.77;;;4.50;91.90;;;;;;5030901;28;20215;-76
2021/11/01 02:14:16;;;;;;;6.07;4.20;;;4.50;91.90;;;;;;5035862;28;20188;-75
2021/11/01 02:16:43;;;;;;;6.93;4.73;;;4.50;91.90;;;;;;5023875;28;20185;-75
2021/11/01 02:19:13;;;;;;;6.00;4.53;;;4.50;92.00;;;;;;5031588;28;20179;-75
2021/11/01 02:21:54;;;;;;;9.07;4.97;;;4.40;91.90;;;;;;5016611;28;21002;-75
2021/11/01 02:24:35;;;;;;;7.07;5.30;;;4.40;91.90;;;;;;5030808;28;20182;-75
2021/11/01 02:27:03;;;;;;;4.00;3.50;;;4.40;91.90;;;;;;5029404;28;20215;-75
2021/11/01 02:29:30;;;;;;;7.63;5.53;;;4.40;91.80;;;;;;5031572;28;20215;-76
2021/11/01 02:31:57;;;;;;;5.17;4.67;;;4.40;91.80;;;;;;5034584;28;20175;-75
2021/11/01 02:34:23;;;;;;;7.83;4.83;;;4.40;91.70;;;;;;5035200;28;20308;-76
2021/11/01 02:36:49;;;;;;;7.90;4.70;;;4.40;91.70;;;;;;5034594;28;20184;-76
2021/11/01 02:39:15;;;;;;;12.67;4.93;;;4.40;91.60;;;;;;5029013;28;20191;-75
2021/11/01 02:41:41;;;;;;;6.80;4.80;;;4.40;91.70;;;;;;5035213;28;20207;-76
2021/11/01 02:44:09;;;;;;;5.70;4.67;;;4.30;92.00;;;;;;5039675;28;20648;-76
2021/11/01 02:46:39;;;;;;;9.00;4.90;;;4.30;92.10;;;;;;5027823;28;20184;-76
2021/11/01 02:49:06;;;;;;;6.13;4.03;;;4.20;92.30;;;;;;5035034;28;20190;-75
2021/11/01 02:51:32;;;;;;;12.73;5.00;;;4.20;92.40;;;;;;5027317;28;20191;-76
2021/11/01 02:54:00;;;;;;;9.23;5.47;;;4.20;92.50;;;;;;5033251;28;20667;-76
2021/11/01 02:56:26;;;;;;;9.30;5.70;;;4.20;92.50;;;;;;5015601;28;20192;-75
2021/11/01 02:58:52;;;;;;;6.30;5.33;;;4.20;92.50;;;;;;5028457;28;20208;-76
2021/11/01 03:01:20;;;;;;;5.67;4.83;;;4.20;92.80;;;;;;5033371;28;20230;-75
2021/11/01 03:03:46;;;;;;;8.83;5.17;;;4.10;93.30;;;;;;5006331;28;20187;-82
2021/11/01 03:06:16;;;;;;;9.10;5.83;;;4.10;93.10;;;;;;5035978;28;20183;-81
2021/11/01 03:08:42;;;;;;;7.70;4.80;;;4.10;93.20;;;;;;5032772;28;20278;-82
2021/11/01 03:11:09;;;;;;;7.60;4.40;;;4.00;93.30;;;;;;5033848;28;20193;-82
2021/11/01 03:13:36;;;;;;;5.73;5.03;;;4.00;93.30;;;;;;5028833;28;20192;-82
2021/11/01 03:16:05;;;;;;;8.00;4.37;;;4.00;93.30;;;;;;5032632;28;20191;-82
2021/11/01 03:18:39;;;;;;;4.50;4.13;;;4.00;93.20;;;;;;5031484;28;20180;-82
2021/11/01 03:21:05;;;;;;;5.67;4.30;;;4.00;93.30;;;;;;5033665;28;20227;-75
2021/11/01 03:23:33;;;;;;;5.30;3.73;;;4.00;93.30;;;;;;5031672;28;20179;-75
2021/11/01 03:26:09;;;;;;;9.50;4.27;;;3.90;93.30;;;;;;5036719;28;20222;-75
2021/11/01 03:28:36;;;;;;;5.33;4.40;;;3.90;93.40;;;;;;5030530;28;20187;-75
2021/11/01 03:31:05;;;;;;;11.43;4.93;;;3.90;93.30;;;;;;5027585;28;20183;-75
2021/11/01 03:33:39;;;;;;;7.80;4.53;;;3.90;93.40;;;;;;5015993;28;20199;-75
2021/11/01 03:36:09;;;;;;;4.97;4.43;;;3.90;93.40;;;;;;5030576;28;20180;-75
2021/11/01 03:38:38;;;;;;;5.63;4.77;;;3.90;93.60;;;;;;5022497;28;20180;-75
2021/11/01 03:41:10;;;;;;;6.23;4.57;;;3.90;93.80;;;;;;5015400;28;20216;-75
2021/11/01 03:43:49;;;;;;;5.07;4.57;;;3.90;93.80;;;;;;5033484;28;20184;-75
2021/11/01 03:46:15;;;;;;;4.27;3.57;;;3.90;93.80;;;;;;5033966;28;20183;-76
2021/11/01 03:48:43;;;;;;;5.03;4.63;;;3.90;93.90;;;;;;5034481;28;20192;-76
2021/11/01 03:51:13;;;;;;;6.53;4.23;;;3.80;93.80;;;;;;5035157;28;20238;-75
2021/11/01 03:53:40;;;;;;;3.90;3.43;;;3.80;93.80;;;;;;5030582;28;20682;-75
2021/11/01 03:56:06;;;;;;;6.70;4.50;;;3.80;93.70;;;;;;5031349;28;20188;-75
2021/11/01 03:58:34;;;;;;;4.50;4.10;;;3.80;93.70;;;;;;5027824;28;20210;-76
2021/11/01 04:01:00;;;;;;;5.27;3.93;;;3.80;93.50;;;;;;5028390;28;20221;-75
2021/11/01 04:03:27;;;;;;;4.73;4.00;;;3.80;93.30;;;;;;5030950;28;20835;-76
2021/11/01 04:06:03;;;;;;;8.30;4.63;;;3.80;93.20;;;;;;5018649;28;20274;-76
2021/11/01 04:08:29;;;;;;;4.07;3.70;;;3.80;93.30;;;;;;5017087;28;20187;-75
2021/11/01 04:10:55;;;;;;;4.77;4.30;;;3.80;93.30;;;;;;5034290;28;20589;-76
2021/11/01 04:13:23;;;;;;;5.87;4.93;;;3.80;93.50;;;;;;5036641;28;20262;-75
2021/11/01 04:15:57;;;;;;;6.67;4.73;;;3.80;93.30;;;;;;5032060;28;20180;-76
2021/11/01 04:21:11;;;;;;;4.37;3.93;;;3.80;93.40;;;;;;4991891;28;20228;-75
2021/11/01 04:23:37;;;;;;;6.17;3.83;;;3.80;93.50;;;;;;4995344;28;20196;-75
2021/11/01 04:26:03;;;;;;;7.20;5.00;;;3.80;93.50;;;;;;4987382;28;20216;-75
2021/11/01 04:28:29;;;;;;;9.20;4.80;;;3.80;93.60;;;;;;4993317;28;20248;-76
2021/11/01 04:31:05;;;;;;;4.97;4.30;;;3.80;93.60;;;;;;4986222;28;20193;-75
2021/11/01 04:33:30;;;;;;;3.70;3.40;;;3.80;93.60;;;;;;4990179;28;20197;-75
2021/11/01 04:35:56;;;;;;;6.00;3.97;;;3.80;93.70;;;;;;4989400;28;20196;-75
2021/11/01 04:40:56;;;;;;;8.30;4.50;;;3.70;94.00;;;;;;4984558;28;20227;-75
2021/11/01 04:54:17;;;;;;;4.07;3.43;;;3.70;93.50;;;;;;4998614;28;20820;-75
2021/11/01 04:56:44;;;;;;;4.63;3.93;;;3.70;93.40;;;;;;5002924;28;20173;-75
2021/11/01 04:59:10;;;;;;;5.73;4.90;;;3.70;93.30;;;;;;5025125;28;20751;-75
2021/11/01 05:01:43;;;;;;;8.30;4.00;;;3.70;93.20;;;;;;5035207;28;20228;-76
2021/11/01 05:04:12;;;;;;;6.17;4.37;;;3.70;93.30;;;;;;5032823;28;20267;-75
2021/11/01 05:06:46;;;;;;;5.50;3.90;;;3.70;93.50;;;;;;5031323;28;20279;-76
2021/11/01 05:09:18;;;;;;;5.03;4.17;;;3.70;93.50;;;;;;5031350;28;20176;-75
2021/11/01 05:14:14;;;;;;;5.90;4.13;;;3.70;93.60;;;;;;5034208;28;20267;-74
2021/11/01 05:19:46;;;;;;;13.50;4.57;;;3.70;93.60;;;;;;5005139;28;20207;-75
2021/11/01 05:22:31;;;;;;;5.87;4.27;;;3.70;93.70;;;;;;5003207;28;20224;-75
2021/11/01 05:27:48;;;;;;;4.87;3.87;;;3.70;93.90;;;;;;5006266;28;20181;-76
2021/11/01 05:30:24;;;;;;;8.07;5.27;;;3.70;94.10;;;;;;5001097;28;20238;-75
2021/11/01 05:32:56;;;;;;;5.13;4.03;;;3.70;94.20;;;;;;5002594;28;20908;-75
2021/11/01 05:35:21;;;;;;;4.20;3.87;;;3.70;94.10;;;;;;5002496;28;20211;-75
2021/11/01 05:37:48;;;;;;;6.67;4.30;;;3.80;94.20;;;;;;5002586;28;20238;-76
2021/11/01 05:40:14;;;;;;;7.00;4.60;;;3.80;94.50;;;;;;5001123;28;20280;-76
2021/11/01 05:42:40;;;;;;;5.67;4.23;;;3.80;94.30;;;;;;5005093;28;20762;-75
2021/11/01 05:45:06;;;;;;;8.20;4.27;;;3.90;94.20;;;;;;5001979;28;20239;-75
2021/11/01 05:47:31;;;;;;;5.47;4.73;;;3.90;94.10;;;;;;4979669;28;20185;-75
2021/11/01 05:49:57;;;;;;;9.07;6.00;;;4.00;94.10;;;;;;5000254;28;21046;-75
2021/11/01 05:52:28;;;;;;;7.67;5.03;;;4.00;94.00;;;;;;5000711;28;20201;-75
2021/11/01 05:54:55;;;;;;;7.23;4.73;;;4.10;93.90;;;;;;4988847;28;20266;-75
2021/11/01 06:00:35;;;;;;;8.43;5.63;;;4.20;94.00;;;;;;5032738;28;20262;-75
2021/11/01 06:03:19;;;;;;;6.77;4.77;;;4.20;94.00;;;;;;5028366;28;20231;-75
2021/11/01 06:16:10;;;;;;;8.13;5.43;;;4.60;93.70;;;;;;4946794;28;20187;-74
2021/11/01 06:18:36;;;;;;;11.17;6.27;;;4.70;93.70;;;;;;4948819;28;20238;-74
2021/11/01 06:21:14;;;;;;;9.63;6.47;;;4.80;93.60;;;;;;4945112;28;20315;-74
2021/11/01 06:23:45;;;;;;;11.83;6.00;;;4.90;93.40;;;;;;4949564;28;20194;-74
2021/11/01 06:26:11;;;;;;;8.20;5.83;;;5.00;93.30;;;;;;4950351;28;20191;-75
2021/11/01 06:28:41;;;;;;;12.90;6.30;;;5.10;93.20;;;;;;4950742;28;20190;-74
2021/11/01 06:31:11;;;;;;;9.20;6.20;;;5.20;93.00;;;;;;4950988;28;20293;-73
2021/11/01 07:16:17;;;;;;;19.90;10.55;;;12.70;80.10;;;;;;4955809;28;20298;-78
2021/11/01 07:18:53;;;;;;;15.77;9.93;;;13.30;79.30;;;;;;4951944;28;20189;-79
2021/11/01 09:28:54;;;;;;;22.52;12.57;;;24.60;54.50;;;;;;4964639;28;20197;-75
2021/11/01 09:36:53;;;;;;;18.08;12.32;;;25.20;53.60;;;;;;4969950;28;20188;-70
2021/11/01 09:42:01;;;;;;;20.38;12.70;;;25.30;53.20;;;;;;4962362;28;20229;-70
2021/11/01 09:44:30;;;;;;;17.17;11.45;;;25.70;52.40;;;;;;4967254;28;20325;-70
2021/11/01 09:46:57;;;;;;;15.73;12.20;;;26.00;52.40;;;;;;4966227;28;20249;-70
2021/11/01 09:49:25;;;;;;;20.63;12.65;;;26.30;52.30;;;;;;4968644;28;20182;-71
2021/11/01 09:51:53;;;;;;;25.13;11.80;;;26.80;50.30;;;;;;4966608;28;20199;-69
2021/11/01 09:54:25;;;;;;;15.60;11.25;;;27.30;51.20;;;;;;4967955;28;20193;-71
2021/11/01 09:56:59;;;;;;;16.02;11.57;;;27.50;48.90;;;;;;4968516;28;20249;-71
2021/11/01 09:59:27;;;;;;;17.60;11.77;;;27.50;49.90;;;;;;4966657;28;21006;-71
2021/11/01 10:01:53;;;;;;;17.77;12.15;;;27.60;49.70;;;;;;5031919;28;20931;-71
2021/11/01 10:04:30;;;;;;;16.88;12.23;;;27.70;49.00;;;;;;5033374;28;20280;-72
2021/11/01 10:07:21;;;;;;;19.90;11.95;;;27.80;49.40;;;;;;5024208;28;20627;-71
2021/11/01 10:09:49;;;;;;;14.60;11.55;;;27.90;47.80;;;;;;5034029;28;20274;-75
2021/11/01 10:12:30;;;;;;;15.10;11.10;;;27.90;49.80;;;;;;5021848;28;20279;-74
2021/11/01 10:18:06;;;;;;;13.05;10.77;;;28.40;48.90;;;;;;5030507;28;20295;-73
2021/11/01 10:20:35;;;;;;;18.02;11.55;;;28.60;47.60;;;;;;5029938;28;20685;-75
2021/11/01 10:23:15;;;;;;;12.15;9.70;;;28.40;48.60;;;;;;5028893;28;20815;-75
2021/11/01 10:25:41;;;;;;;13.02;10.68;;;28.40;48.30;;;;;;5040839;28;20191;-75
2021/11/01 10:28:07;;;;;;;12.20;9.45;;;28.40;48.80;;;;;;5008265;28;20786;-74
2021/11/01 10:30:36;;;;;;;12.60;10.65;;;28.50;47.90;;;;;;5023686;28;20249;-75
2021/11/01 10:33:07;;;;;;;18.40;11.18;;;28.30;48.00;;;;;;5021580;28;20198;-75
2021/11/01 10:35:40;;;;;;;12.43;11.07;;;28.10;48.10;;;;;;5027294;28;20756;-75
2021/11/01 10:38:40;;;;;;;12.43;10.48;;;28.10;49.20;;;;;;5027782;28;20195;-75
2021/11/01 11:13:32;;;;;;;11.30;9.00;;;30.00;46.90;;;;;;5024869;28;20187;-74
2021/11/01 11:15:59;;;;;;;11.18;9.25;;;30.10;45.20;;;;;;5024278;28;20563;-74
2021/11/01 11:27:45;;;;;;;11.07;9.45;;;30.10;46.40;;;;;;5002108;28;20209;-77
2021/11/01 11:49:35;;;;;;;13.63;9.85;;;29.70;45.70;;;;;;5000460;28;20355;-76
2021/11/01 11:52:05;;;;;;;23.98;10.45;;;29.70;46.00;;;;;;5012987;28;20698;-75
2021/11/01 11:54:43;;;;;;;9.88;8.85;;;29.70;46.60;;;;;;5029669;28;20182;-75
2021/11/01 11:57:29;;;;;;;12.43;9.32;;;29.60;46.40;;;;;;5032293;28;20755;-78
2021/11/01 11:59:56;;;;;;;10.93;8.82;;;29.30;44.80;;;;;;5036190;28;20180;-78
2021/11/01 12:02:52;;;;;;;13.93;8.70;;;29.10;46.70;;;;;;5037257;28;20296;-77
2021/11/01 12:06:07;;;;;;;12.73;9.77;;;29.10;46.50;;;;;;5037350;28;20194;-77
2021/11/01 12:08:36;;;;;;;9.68;8.70;;;29.20;46.30;;;;;;5034324;28;20187;-77
2021/11/01 12:19:02;;;;;;;11.35;8.48;;;28.60;47.20;;;;;;5036468;28;20695;-78
2021/11/01 12:21:32;;;;;;;13.48;8.23;;;28.40;47.10;;;;;;5029519;28;20688;-77
2021/11/01 12:23:58;;;;;;;10.48;8.50;;;28.30;46.80;;;;;;5036632;28;20186;-77
2021/11/01 12:26:26;;;;;;;11.68;9.50;;;28.20;47.60;;;;;;5037996;28;20177;-73
2021/11/01 12:28:54;;;;;;;12.40;9.65;;;28.20;48.70;;;;;;5038951;28;20185;-77
2021/11/01 12:31:21;;;;;;;9.25;8.27;;;28.20;47.30;;;;;;5029943;28;20262;-76
2021/11/01 12:34:05;;;;;;;14.27;9.25;;;28.00;47.90;;;;;;5031666;28;21041;-77
2021/11/01 12:39:33;;;;;;;14.60;8.80;;;27.60;48.20;;;;;;5031947;28;20172;-77
2021/11/01 12:58:54;;;;;;;9.60;8.60;;;27.10;49.40;;;;;;4959960;28;20336;-74
2021/11/01 13:01:21;;;;;;;11.93;9.10;;;27.10;49.80;;;;;;4956915;28;20231;-74
2021/11/01 13:03:55;;;;;;;9.52;8.48;;;27.10;49.20;;;;;;4961243;28;20187;-75
2021/11/01 13:06:32;;;;;;;9.85;8.85;;;27.00;49.40;;;;;;4965182;28;20281;-77
2021/11/01 13:09:03;;;;;;;13.52;9.77;;;26.80;49.60;;;;;;4957755;28;20217;-77
2021/11/01 13:11:53;;;;;;;11.50;9.35;;;26.70;49.00;;;;;;4958889;28;20190;-77
2021/11/01 13:14:59;;;;;;;10.77;9.45;;;26.30;49.60;;;;;;4957204;28;20301;-78
2021/11/01 13:19:56;;;;;;;9.98;8.98;;;25.10;50.80;;;;;;4961272;28;20722;-77
2021/11/01 13:22:28;;;;;;;9.07;8.20;;;24.50;52.00;;;;;;4958092;28;20803;-75
2021/11/01 13:25:03;;;;;;;11.40;8.93;;;24.40;52.50;;;;;;4959405;28;20260;-76
2021/11/01 13:38:57;;;;;;;12.32;9.00;;;24.50;52.80;;;;;;4959998;28;20668;-73
2021/11/01 13:41:28;;;;;;;12.82;9.88;;;24.50;52.70;;;;;;4953905;28;20366;-75
2021/11/01 13:44:19;;;;;;;11.55;9.30;;;24.40;52.60;;;;;;4967422;28;20190;-75
2021/11/01 13:47:07;;;;;;;14.80;9.13;;;24.20;52.50;;;;;;4966644;28;20735;-75
2021/11/01 13:49:35;;;;;;;10.93;9.07;;;24.00;52.30;;;;;;4966513;28;20202;-74
2021/11/01 13:52:15;;;;;;;14.07;9.63;;;23.80;53.10;;;;;;4961643;28;20657;-74
2021/11/01 13:55:00;;;;;;;10.25;8.68;;;23.60;53.60;;;;;;4972151;28;20296;-72
2021/11/01 13:57:28;;;;;;;10.18;9.02;;;23.40;54.30;;;;;;4963082;28;20198;-75
2021/11/01 14:00:09;;;;;;;12.73;8.00;;;23.40;54.80;;;;;;4970792;28;20190;-77
2021/11/01 14:03:00;;;;;;;10.55;8.68;;;23.30;54.80;;;;;;4969380;28;20399;-77
2021/11/01 14:29:36;;;;;;;11.00;8.88;;;20.90;57.20;;;;;;5028041;28;20684;-77
2021/11/01 15:36:25;;;;;;;12.25;9.13;;;14.10;67.60;;;;;;4971538;28;20357;-76
2021/11/01 16:19:56;;;;;;;13.27;8.25;;;12.30;71.30;;;;;;5009233;28;20427;-76
2021/11/01 16:22:23;;;;;;;13.38;8.43;;;12.30;71.80;;;;;;5012375;28;20229;-76
2021/11/01 16:24:49;;;;;;;14.98;9.00;;;12.30;71.60;;;;;;5004395;28;20667;-76
2021/11/01 16:27:18;;;;;;;11.63;8.40;;;12.20;71.20;;;;;;5005626;28;20188;-76
2021/11/01 16:35:06;;;;;;;14.43;8.18;;;11.90;72.60;;;;;;5003036;28;20259;-77
2021/11/01 16:37:45;;;;;;;17.70;9.10;;;11.80;72.70;;;;;;5001746;28;20197;-75
2021/11/01 16:40:13;;;;;;;9.98;7.38;;;11.70;72.50;;;;;;5004576;28;20677;-75
2021/11/01 16:42:41;;;;;;;13.35;6.93;;;11.70;72.60;;;;;;5002014;28;20232;-76
2021/11/01 16:45:16;;;;;;;14.45;8.00;;;11.70;72.40;;;;;;5005532;28;20356;-77
2021/11/01 16:47:43;;;;;;;13.57;8.52;;;11.70;72.50;;;;;;5017408;28;20191;-75
2021/11/01 16:50:11;;;;;;;19.05;9.35;;;11.60;72.30;;;;;;5021849;28;21264;-76
2021/11/01 16:52:38;;;;;;;11.10;7.30;;;11.60;72.90;;;;;;5030898;28;20975;-76
2021/11/01 16:55:10;;;;;;;15.90;9.45;;;11.50;72.70;;;;;;5028254;28;20191;-77
2021/11/01 16:57:46;;;;;;;13.43;9.02;;;11.50;72.80;;;;;;5029085;28;20323;-76
2021/11/01 17:05:59;;;;;;;16.25;9.48;;;11.50;73.70;;;;;;5028950;28;20188;-77
2021/11/01 17:22:32;;;;;;;16.38;9.25;;;11.20;75.70;;;;;;5032836;28;20215;-77
2021/11/01 18:40:04;;;;;;;23.10;12.30;;;9.80;79.90;;;;;;5031621;28;20183;-75
2021/11/01 18:54:01;;;;;;;21.90;12.63;;;9.60;80.80;;;;;;4974253;28;20281;-75
2021/11/01 18:56:34;;;;;;;32.17;13.23;;;9.50;81.40;;;;;;4973098;28;20289;-75
2021/11/01 18:59:02;;;;;;;26.63;12.57;;;9.50;81.00;;;;;;4972298;28;20193;-73
2021/11/01 19:01:32;;;;;;;25.20;13.30;;;9.50;80.60;;;;;;4974964;28;20718;-73
2021/11/01 19:04:00;;;;;;;18.97;11.40;;;9.50;80.70;;;;;;4972258;28;20200;-73
2021/11/01 19:06:45;;;;;;;23.07;12.23;;;9.50;81.10;;;;;;4970920;28;20375;-74
2021/11/01 20:04:46;;;;;;;40.10;17.07;;;8.20;84.10;;;;;;5027346;28;20195;-74
2021/11/01 20:08:07;;;;;;;38.20;17.67;;;8.20;84.30;;;;;;5025222;28;20248;-75
2021/11/01 21:25:03;;;;;;;27.43;12.50;;;7.00;87.40;;;;;;5029374;28;20195;-71
2021/11/01 21:27:30;;;;;;;26.87;13.07;;;6.90;87.30;;;;;;5030318;28;20180;-71
2021/11/01 21:29:56;;;;;;;24.30;12.30;;;6.90;87.40;;;;;;5029262;28;20180;-69
2021/11/01 21:32:22;;;;;;;24.77;12.27;;;6.90;87.20;;;;;;5034833;28;20176;-71
2021/11/01 21:34:59;;;;;;;28.40;13.43;;;6.90;87.20;;;;;;5011105;28;20192;-71
2021/11/01 21:37:27;;;;;;;24.13;12.37;;;6.90;87.40;;;;;;5034777;28;20184;-71
2021/11/01 21:39:53;;;;;;;25.57;12.50;;;6.90;87.40;;;;;;5031491;28;20712;-71
2021/11/01 21:42:19;;;;;;;22.50;11.30;;;6.90;87.10;;;;;;5040871;28;20207;-71
2021/11/01 21:44:45;;;;;;;29.60;12.60;;;6.90;87.60;;;;;;5031347;28;20176;-71
2021/11/01 21:47:11;;;;;;;20.37;11.67;;;6.90;87.30;;;;;;5032963;28;20171;-70
2021/11/01 21:49:37;;;;;;;29.53;12.43;;;6.80;87.70;;;;;;5032225;28;20232;-71
2021/11/01 21:52:03;;;;;;;20.03;11.50;;;6.80;88.00;;;;;;5022761;28;20571;-71
2021/11/01 21:54:32;;;;;;;23.57;13.40;;;6.80;87.90;;;;;;5029480;28;20191;-72
2021/11/01 22:09:46;;;;;;;23.53;11.77;;;6.70;88.70;;;;;;5021003;28;20229;-69
2021/11/01 22:38:12;;;;;;;21.97;10.77;;;6.40;88.60;;;;;;4931918;29;20212;-71
2021/11/01 22:42:58;;;;;;;18.97;9.67;;;6.30;89.00;;;;;;4935264;29;21787;-71
2021/11/01 22:55:51;;;;;;;17.40;9.23;;;6.10;89.70;;;;;;4932637;29;20268;-71
2021/11/01 22:58:19;;;;;;;17.00;9.27;;;6.10;89.70;;;;;;4930234;29;20187;-71
2021/11/01 23:00:58;;;;;;;15.30;8.50;;;6.10;89.60;;;;;;4959069;28;20396;-70
2021/11/01 23:33:05;;;;;;;18.77;8.30;;;5.70;89.70;;;;;;5031432;28;20576;-70
2021/11/01 23:35:31;;;;;;;21.37;8.60;;;5.70;89.90;;;;;;5015582;28;20200;-71
2021/11/01 23:37:57;;;;;;;12.50;6.57;;;5.70;89.70;;;;;;5014287;28;20184;-71
2021/11/01 23:40:22;;;;;;;13.20;7.73;;;5.70;89.70;;;;;;5011376;28;20184;-71
2021/11/01 23:42:48;;;;;;;10.40;6.57;;;5.70;89.90;;;;;;5008397;28;20313;-71
2021/11/01 23:45:14;;;;;;;13.07;7.73;;;5.70;89.70;;;;;;5008134;28;20185;-71
2021/11/01 23:47:40;;;;;;;12.23;7.30;;;5.70;89.70;;;;;;5010701;28;20184;-71
2021/11/01 23:50:06;;;;;;;13.97;8.07;;;5.70;90.50;;;;;;5022151;28;20674;-71
2021/11/01 23:52:40;;;;;;;12.43;8.03;;;5.70;90.30;;;;;;5009027;28;20233;-71
2021/11/01 23:55:08;;;;;;;15.07;8.37;;;5.70;90.30;;;;;;5010960;28;20215;-71
2021/11/01 23:57:33;;;;;;;12.40;7.10;;;5.70;90.10;;;;;;5014615;28;20175;-71
